createdAt,value
2019-06-10T00:00:13.477Z,2.67
2019-06-10T00:05:15.628Z,3.03
2019-06-10T00:10:21.343Z,3.40
2019-06-10T00:15:24.657Z,3.03
2019-06-10T00:20:27.560Z,2.80
2019-06-10T00:25:31.481Z,2.80
2019-06-10T00:30:35.238Z,2.67
2019-06-10T00:35:40.929Z,2.53
2019-06-10T00:40:43.989Z,2.40
2019-06-10T00:45:47.197Z,2.30
2019-06-10T00:50:51.760Z,2.83
2019-06-10T00:55:55.103Z,2.23
2019-06-10T01:00:57.612Z,2.60
2019-06-10T01:06:02.645Z,2.53
2019-06-10T01:11:12.590Z,1.93
2019-06-10T01:16:12.568Z,2.17
2019-06-10T01:21:16.430Z,2.73
2019-06-10T01:26:21.523Z,2.33
2019-06-10T01:31:25.403Z,2.87
2019-06-10T01:36:31.188Z,2.60
2019-06-10T01:41:34.182Z,2.53
2019-06-10T01:46:37.147Z,2.27
2019-06-10T01:51:41.260Z,2.80
2019-06-10T01:56:44.832Z,1.80
2019-06-10T02:02:07.527Z,2.17
2019-06-10T02:07:12.083Z,2.30
2019-06-10T02:12:19.078Z,2.70
2019-06-10T02:17:23.816Z,2.17
2019-06-10T02:22:27.037Z,2.00
2019-06-10T02:27:31.511Z,2.00
2019-06-10T02:32:37.676Z,2.20
2019-06-10T02:37:39.373Z,2.20
2019-06-10T02:42:44.960Z,2.90
2019-06-10T02:47:48.580Z,2.10
2019-06-10T02:52:53.090Z,1.80
2019-06-10T02:57:56.839Z,1.60
2019-06-10T03:03:03.360Z,1.87
2019-06-10T03:08:05.841Z,1.80
2019-06-10T03:13:09.078Z,2.20
2019-06-10T03:18:12.923Z,1.80
2019-06-10T03:23:16.481Z,2.10
2019-06-10T03:28:19.636Z,1.80
2019-06-10T03:33:27.723Z,2.27
2019-06-10T03:38:28.334Z,2.10
2019-06-10T03:43:32.887Z,1.90
2019-06-10T03:48:35.701Z,2.03
2019-06-10T03:53:39.220Z,1.83
2019-06-10T03:58:43.035Z,3.13
2019-06-10T04:03:46.850Z,2.27
2019-06-10T04:08:52.258Z,2.50
2019-06-10T04:13:55.543Z,2.27
2019-06-10T04:18:59.161Z,2.17
2019-06-10T04:24:02.229Z,2.37
2019-06-10T04:29:06.138Z,2.20
2019-06-10T04:34:09.614Z,2.17
2019-06-10T04:39:12.697Z,2.13
2019-06-10T04:44:16.072Z,2.17
2019-06-10T04:49:20.642Z,2.07
2019-06-10T04:54:26.606Z,1.83
2019-06-10T04:59:31.080Z,2.03
2019-06-10T05:04:35.891Z,2.53
2019-06-10T05:09:39.550Z,2.33
2019-06-10T05:14:43.241Z,2.47
2019-06-10T05:19:46.278Z,2.10
2019-06-10T05:24:48.993Z,1.70
2019-06-10T05:29:52.723Z,2.07
2019-06-10T05:34:56.391Z,2.27
2019-06-10T05:40:02.047Z,2.70
2019-06-10T05:45:06.878Z,2.30
2019-06-10T05:50:12.767Z,2.00
2019-06-10T05:55:16.192Z,2.43
2019-06-10T06:00:19.945Z,1.70
2019-06-10T06:05:23.896Z,2.10
2019-06-10T06:10:27.214Z,3.07
2019-06-10T06:15:34.503Z,2.07
2019-06-10T06:20:37.561Z,2.37
2019-06-10T06:25:44.307Z,2.60
2019-06-10T06:30:45.506Z,2.70
2019-06-10T06:35:48.776Z,2.20
2019-06-10T06:40:53.738Z,3.00
2019-06-10T06:45:56.809Z,2.10
2019-06-10T06:51:04.776Z,2.47
2019-06-10T06:56:05.436Z,2.00
2019-06-10T07:01:11.013Z,2.60
2019-06-10T07:06:14.615Z,2.13
2019-06-10T07:11:18.333Z,3.00
2019-06-10T07:16:23.050Z,2.77
2019-06-10T07:21:26.113Z,2.80
2019-06-10T07:26:29.342Z,2.90
2019-06-10T07:31:36.407Z,2.50
2019-06-10T07:36:40.882Z,3.10
2019-06-10T07:41:47.643Z,2.60
2019-06-10T07:46:48.924Z,4.27
2019-06-10T07:51:52.533Z,4.17
2019-06-10T07:56:56.106Z,4.23
2019-06-10T08:01:59.769Z,3.10
2019-06-10T08:07:03.341Z,3.13
2019-06-10T08:12:06.774Z,2.50
2019-06-10T08:17:09.708Z,2.20
2019-06-10T08:22:17.229Z,2.67
2019-06-10T08:27:19.169Z,2.80
2019-06-10T08:32:24.427Z,2.87
2019-06-10T08:37:28.170Z,3.13
2019-06-10T08:42:32.390Z,2.67
2019-06-10T08:47:39.209Z,2.90
2019-06-10T08:53:02.141Z,2.53
2019-06-10T08:57:50.986Z,3.40
2019-06-10T09:02:53.962Z,3.03
2019-06-10T09:07:57.396Z,2.20
2019-06-10T09:13:02.614Z,2.43
2019-06-10T09:18:05.183Z,3.00
2019-06-10T09:23:20.893Z,2.17
2019-06-10T09:28:13.358Z,3.10
2019-06-10T09:33:16.234Z,3.17
2019-06-10T09:38:22.188Z,3.43
2019-06-10T09:43:24.778Z,2.57
2019-06-10T09:48:27.908Z,3.10
2019-06-10T09:53:41.345Z,3.00
2019-06-10T09:58:36.763Z,2.77
2019-06-10T10:03:42.373Z,2.53
2019-06-10T10:08:51.445Z,2.43
2019-06-10T10:13:52.692Z,2.77
2019-06-10T10:19:00.397Z,2.50
2019-06-10T10:24:10.534Z,2.50
2019-06-10T10:29:09.913Z,2.30
2019-06-10T10:34:13.640Z,2.70
2019-06-10T10:39:16.790Z,2.10
2019-06-10T10:44:20.398Z,2.30
2019-06-10T10:49:24.017Z,2.77
2019-06-10T10:54:34.003Z,2.07
2019-06-10T10:59:33.292Z,2.60
2019-06-10T11:04:42.629Z,2.37
2019-06-10T11:09:46.638Z,2.63
2019-06-10T11:14:54.945Z,2.20
2019-06-10T11:19:57.864Z,3.77
2019-06-10T11:25:01.779Z,2.97
2019-06-10T11:30:06.054Z,2.53
2019-06-10T11:35:11.999Z,2.63
2019-06-10T11:40:14.795Z,2.80
2019-06-10T11:45:18.378Z,2.40
2019-06-10T11:50:23.351Z,2.60
2019-06-10T11:55:26.800Z,3.03
2019-06-10T12:00:33.116Z,2.93
2019-06-10T12:05:36.277Z,3.00
2019-06-10T12:10:39.252Z,2.60
2019-06-10T12:16:30.459Z,2.83
2019-06-10T12:20:49.599Z,2.67
2019-06-10T12:25:55.928Z,2.13
2019-06-10T12:31:01.475Z,2.27
2019-06-10T12:36:06.937Z,2.57
2019-06-10T12:41:13.055Z,2.70
2019-06-10T12:46:14.473Z,2.20
2019-06-10T12:51:18.102Z,2.60
2019-06-10T12:56:22.734Z,3.10
2019-06-10T13:01:26.338Z,3.70
2019-06-10T13:06:33.051Z,2.97
2019-06-10T13:11:36.661Z,3.40
2019-06-10T13:16:41.123Z,3.53
2019-06-10T13:21:45.212Z,3.63
2019-06-10T13:26:47.924Z,3.87
2019-06-10T13:31:52.866Z,3.77
2019-06-10T13:36:56.737Z,4.27
2019-06-10T13:42:03.248Z,4.63
2019-06-10T13:47:09.061Z,3.70
2019-06-10T13:52:15.990Z,4.47
2019-06-10T13:57:15.097Z,4.10
2019-06-10T14:02:18.735Z,3.87
2019-06-10T14:07:23.411Z,4.77
2019-06-10T14:12:26.719Z,4.70
2019-06-10T14:17:32.890Z,4.30
2019-06-10T14:22:36.004Z,4.90
2019-06-10T14:27:39.350Z,4.40
2019-06-10T14:32:42.709Z,4.10
2019-06-10T14:37:46.310Z,3.67
2019-06-10T14:42:48.935Z,4.33
2019-06-10T14:47:54.429Z,3.63
2019-06-10T14:52:57.988Z,3.53
2019-06-10T14:58:02.723Z,4.40
2019-06-10T15:03:09.106Z,3.47
2019-06-10T15:08:13.710Z,3.10
2019-06-10T15:13:16.358Z,3.60
2019-06-10T15:18:23.224Z,4.70
2019-06-10T15:23:24.998Z,3.60
2019-06-10T15:28:28.007Z,3.63
2019-06-10T15:33:32.666Z,3.50
2019-06-10T15:38:36.974Z,3.80
2019-06-10T15:43:42.356Z,3.93
2019-06-10T15:48:45.714Z,4.20
2019-06-10T15:53:49.515Z,4.53
2019-06-10T15:58:52.486Z,4.50
2019-06-10T16:03:55.368Z,5.20
2019-06-10T16:08:57.964Z,5.30
2019-06-10T16:14:02.878Z,5.00
2019-06-10T16:19:06.696Z,6.90
2019-06-10T16:24:09.998Z,7.60
2019-06-10T16:29:12.961Z,8.63
2019-06-10T16:34:16.783Z,10.73
2019-06-10T16:39:21.715Z,9.80
2019-06-10T16:44:28.016Z,10.37
2019-06-10T16:49:32.739Z,8.33
2019-06-10T16:54:35.989Z,8.20
2019-06-10T16:59:39.194Z,7.60
2019-06-10T17:04:43.471Z,8.90
2019-06-10T17:09:46.324Z,8.20
2019-06-10T17:14:49.651Z,8.20
2019-06-10T17:19:52.948Z,9.30
2019-06-10T17:24:56.205Z,7.73
2019-06-10T17:29:59.934Z,8.57
2019-06-10T17:35:03.404Z,9.33
2019-06-10T17:40:08.274Z,8.00
2019-06-10T17:45:12.782Z,8.23
2019-06-10T17:50:16.990Z,8.47
2019-06-10T17:55:23.307Z,5.60
2019-06-10T18:00:26.530Z,5.80
2019-06-10T18:05:31.326Z,6.67
2019-06-10T18:10:36.131Z,7.57
2019-06-10T18:15:38.905Z,6.57
2019-06-10T18:20:43.383Z,6.77
2019-06-10T18:25:48.990Z,6.50
2019-06-10T18:30:53.405Z,6.80
2019-06-10T18:35:57.200Z,7.00
2019-06-10T18:41:03.190Z,5.80
2019-06-10T18:46:07.809Z,7.10
2019-06-10T18:51:12.484Z,6.00
2019-06-10T18:56:16.270Z,6.53
2019-06-10T19:01:19.890Z,6.33
2019-06-10T19:06:23.403Z,5.37
2019-06-10T19:11:26.889Z,6.20
2019-06-10T19:16:32.624Z,6.00
2019-06-10T19:21:36.291Z,5.50
2019-06-10T19:26:44.787Z,5.17
2019-06-10T19:31:46.511Z,5.33
2019-06-10T19:36:52.190Z,4.83
2019-06-10T19:41:56.306Z,4.90
2019-06-10T19:46:59.737Z,5.10
2019-06-10T19:52:03.433Z,4.80
2019-06-10T19:57:06.746Z,4.83
2019-06-10T20:02:10.063Z,4.30
2019-06-10T20:07:13.892Z,4.97
2019-06-10T20:12:17.195Z,4.60
2019-06-10T20:17:22.594Z,4.90
2019-06-10T20:22:25.980Z,4.20
2019-06-10T20:27:29.268Z,4.63
2019-06-10T20:32:33.702Z,5.03
2019-06-10T20:37:37.668Z,4.40
2019-06-10T20:42:42.208Z,4.87
2019-06-10T20:47:48.000Z,4.50
2019-06-10T20:52:52.420Z,4.93
2019-06-10T20:58:03.545Z,4.90
2019-06-10T21:03:03.261Z,4.17
2019-06-10T21:08:06.287Z,5.57
2019-06-10T21:13:09.222Z,4.60
2019-06-10T21:18:13.309Z,4.70
2019-06-10T21:23:17.149Z,4.57
2019-06-10T21:28:22.277Z,3.87
2019-06-10T21:33:25.587Z,3.97
2019-06-10T21:38:29.088Z,3.63
2019-06-10T21:43:33.124Z,4.50
2019-06-10T21:48:36.313Z,4.40
2019-06-10T21:53:39.552Z,4.37
2019-06-10T21:58:43.897Z,4.10
2019-06-10T22:03:51.089Z,5.10
2019-06-10T22:08:54.951Z,4.60
2019-06-10T22:13:57.912Z,5.23
2019-06-10T22:19:03.080Z,5.10
2019-06-10T22:24:05.955Z,5.50
2019-06-10T22:29:12.540Z,5.53
2019-06-10T22:34:15.251Z,5.57
2019-06-10T22:39:18.544Z,5.80
2019-06-10T22:44:24.193Z,4.90
2019-06-10T22:49:27.028Z,5.17
2019-06-10T22:54:32.286Z,7.03
2019-06-10T22:59:35.248Z,5.57
2019-06-10T23:04:38.821Z,6.00
2019-06-10T23:09:42.879Z,4.53
2019-06-10T23:14:46.258Z,6.10
2019-06-10T23:19:49.570Z,5.37
2019-06-10T23:24:53.593Z,5.27
2019-06-10T23:29:57.549Z,5.80
2019-06-10T23:35:02.375Z,5.13
2019-06-10T23:40:05.440Z,5.63
2019-06-10T23:45:08.699Z,5.20
2019-06-10T23:50:12.911Z,5.07
2019-06-10T23:55:15.509Z,5.80
